Terminal Aerodrome Forecast
Issued by NWS

Home | Current Version | Previous Version | Graphics & Text | Print | Product List | Glossary On
Versions: 1 2 3 4 5 6 7 8 9 10 11 12 13 14 15 16 17 18 19 20 21 22 23 24 25 26 27 28 29 30 31
000
FTUS43 KGRB 172300
TAFAUW
TAF
KAUW 172335Z 1800/1824 11006KT P6SM BKN028
     FM181000 13004KT 6SM BR BKN035
      TEMPO 1810/1814 4SM -TSRA BR OVC025CB
     FM181400 17007KT P6SM VCTS BKN030CB
      TEMPO 1814/1818 3SM SHRA BKN015
     FM181800 18008KT 4SM SHRA BKN018=

USA.gov is the U.S. government's official web portal to all federal, state and local government web resources and services.